createdAt,value
2019-04-28T00:00:25.287Z,92.90
2019-04-28T00:02:51.348Z,92.80
2019-04-28T00:05:17.795Z,92.90
2019-04-28T00:07:43.864Z,92.90
2019-04-28T00:10:11.000Z,93.00
2019-04-28T00:12:37.175Z,93.00
2019-04-28T00:15:04.341Z,93.30
2019-04-28T00:17:30.933Z,93.10
2019-04-28T00:19:58.960Z,93.10
2019-04-28T00:22:30.759Z,93.20
2019-04-28T00:24:58.860Z,93.50
2019-04-28T00:27:24.906Z,93.20
2019-04-28T00:29:51.907Z,93.20
2019-04-28T00:32:18.271Z,93.10
2019-04-28T00:34:44.539Z,93.00
2019-04-28T00:37:12.494Z,93.10
2019-04-28T00:39:38.544Z,93.10
2019-04-28T00:42:04.599Z,93.10
2019-04-28T00:44:31.459Z,93.10
2019-04-28T00:46:57.707Z,93.20
2019-04-28T00:49:34.265Z,93.20
2019-04-28T00:52:00.657Z,93.20
2019-04-28T00:54:28.288Z,93.00
2019-04-28T00:56:54.340Z,93.50
2019-04-28T00:59:21.720Z,93.20
2019-04-28T01:01:51.274Z,93.10
2019-04-28T01:04:17.532Z,93.10
2019-04-28T01:06:43.579Z,93.10
2019-04-28T01:09:11.730Z,93.10
2019-04-28T01:11:38.099Z,93.10
2019-04-28T01:14:04.207Z,93.10
2019-04-28T01:16:32.151Z,93.10
2019-04-28T01:19:02.875Z,93.20
2019-04-28T01:21:33.391Z,93.10
2019-04-28T01:23:59.804Z,93.20
2019-04-28T01:26:25.999Z,93.20
2019-04-28T01:28:52.067Z,93.20
2019-04-28T01:31:22.600Z,93.20
2019-04-28T01:33:56.535Z,93.20
2019-04-28T01:36:22.592Z,93.20
2019-04-28T01:38:50.069Z,93.20
2019-04-28T01:41:16.311Z,93.30
2019-04-28T01:43:42.367Z,93.40
2019-04-28T01:46:10.044Z,93.40
2019-04-28T01:48:36.384Z,93.40
2019-04-28T01:51:02.435Z,93.40
2019-04-28T01:53:28.491Z,93.50
2019-04-28T01:55:54.544Z,93.50
2019-04-28T01:58:20.644Z,93.50
2019-04-28T02:00:46.700Z,93.40
2019-04-28T02:03:12.868Z,93.40
2019-04-28T02:05:40.494Z,93.40
2019-04-28T02:08:06.779Z,93.40
2019-04-28T02:10:32.827Z,93.30
2019-04-28T02:12:59.930Z,93.40
2019-04-28T02:15:26.156Z,93.40
2019-04-28T02:17:52.297Z,93.50
2019-04-28T02:20:20.193Z,93.50
2019-04-28T02:22:50.006Z,93.60
2019-04-28T02:25:16.207Z,93.60
2019-04-28T02:27:42.271Z,93.60
2019-04-28T02:30:11.509Z,93.60
2019-04-28T02:32:40.526Z,93.60
2019-04-28T02:35:06.457Z,93.60
2019-04-28T02:37:32.701Z,93.70
2019-04-28T02:40:02.816Z,93.60
2019-04-28T02:42:26.851Z,93.60
2019-04-28T02:44:52.900Z,93.70
2019-04-28T02:47:21.582Z,93.70
2019-04-28T02:49:51.336Z,93.70
2019-04-28T02:52:20.624Z,93.60
2019-04-28T02:54:46.951Z,93.60
2019-04-28T02:57:13.015Z,93.40
2019-04-28T02:59:40.875Z,93.60
2019-04-28T03:02:07.049Z,93.50
2019-04-28T03:04:33.092Z,93.30
2019-04-28T03:07:01.365Z,93.30
2019-04-28T03:09:27.097Z,93.20
2019-04-28T03:11:53.348Z,93.20
2019-04-28T03:14:20.940Z,93.10
2019-04-28T03:16:47.297Z,93.00
2019-04-28T03:19:13.343Z,92.70
2019-04-28T03:21:41.657Z,93.00
2019-04-28T03:24:07.352Z,93.10
2019-04-28T03:26:41.543Z,93.10
2019-04-28T03:29:15.143Z,92.90
2019-04-28T03:32:13.689Z,93.10
2019-04-28T03:34:16.599Z,93.00
2019-04-28T03:36:42.651Z,93.10
2019-04-28T03:39:11.062Z,93.00
2019-04-28T03:41:36.676Z,92.90
2019-04-28T03:44:03.119Z,92.90
2019-04-28T03:46:31.167Z,92.90
2019-04-28T03:48:57.233Z,92.80
2019-04-28T03:51:23.392Z,92.90
2019-04-28T03:53:50.732Z,92.90
2019-04-28T03:56:17.014Z,92.90
2019-04-28T03:58:43.163Z,92.90
2019-04-28T04:01:10.714Z,93.00
2019-04-28T04:03:37.189Z,92.90
2019-04-28T04:06:03.349Z,93.00
2019-04-28T04:08:30.994Z,93.10
2019-04-28T04:11:02.204Z,93.10
2019-04-28T04:13:33.008Z,93.10
2019-04-28T04:16:20.494Z,93.10
2019-04-28T04:18:52.966Z,93.20
2019-04-28T04:21:16.154Z,93.20
2019-04-28T04:23:42.204Z,93.10
2019-04-28T04:26:11.437Z,93.10
2019-04-28T04:28:36.239Z,93.10
2019-04-28T04:31:03.207Z,93.10
2019-04-28T04:33:31.042Z,93.10
2019-04-28T04:35:57.329Z,93.20
2019-04-28T04:38:23.381Z,93.20
2019-04-28T04:40:51.246Z,93.30
2019-04-28T04:43:17.604Z,93.30
2019-04-28T04:45:43.657Z,93.30
2019-04-28T04:48:11.651Z,93.20
2019-04-28T04:50:37.683Z,93.20
2019-04-28T04:53:04.049Z,93.20
2019-04-28T04:55:30.781Z,93.20
2019-04-28T04:57:57.104Z,93.20
2019-04-28T05:00:25.055Z,93.00
2019-04-28T05:02:55.308Z,93.00
2019-04-28T05:05:22.875Z,92.90
2019-04-28T05:07:50.688Z,92.90
2019-04-28T05:10:16.911Z,92.90
2019-04-28T05:12:42.958Z,92.80
2019-04-28T05:15:10.396Z,93.00
2019-04-28T05:17:36.672Z,93.00
2019-04-28T05:20:04.939Z,93.00
2019-04-28T05:22:32.899Z,92.90
2019-04-28T05:25:03.632Z,92.90
2019-04-28T05:27:30.075Z,92.80
2019-04-28T05:30:02.544Z,92.70
2019-04-28T05:32:25.696Z,92.70
2019-04-28T05:34:52.907Z,92.60
2019-04-28T05:37:19.711Z,92.50
2019-04-28T05:39:47.308Z,92.40
2019-04-28T05:42:13.362Z,92.40
2019-04-28T05:44:40.817Z,92.40
2019-04-28T05:47:07.119Z,92.50
2019-04-28T05:49:35.087Z,92.20
2019-04-28T05:52:05.584Z,91.80
2019-04-28T05:54:49.632Z,92.10
2019-04-28T05:57:18.276Z,92.20
2019-04-28T06:00:03.733Z,92.30
2019-04-28T06:02:53.515Z,92.20
2019-04-28T06:05:10.162Z,92.20
2019-04-28T06:07:53.472Z,91.90
2019-04-28T06:10:20.153Z,91.80
2019-04-28T06:12:46.474Z,91.50
2019-04-28T06:15:12.557Z,91.10
2019-04-28T06:17:39.690Z,90.80
2019-04-28T06:20:06.129Z,90.90
2019-04-28T06:22:32.232Z,90.80
2019-04-28T06:24:58.303Z,90.50
2019-04-28T06:27:24.362Z,90.20
2019-04-28T06:29:50.450Z,90.30
2019-04-28T06:32:16.508Z,90.40
2019-04-28T06:34:42.564Z,90.40
2019-04-28T06:37:09.123Z,90.30
2019-04-28T06:39:35.173Z,90.40
2019-04-28T06:42:01.227Z,90.60
2019-04-28T06:44:27.283Z,90.70
2019-04-28T06:46:53.363Z,90.60
2019-04-28T06:49:19.414Z,90.80
2019-04-28T06:51:45.480Z,90.50
2019-04-28T06:54:11.526Z,90.50
2019-04-28T06:56:37.591Z,90.50
2019-04-28T06:59:03.646Z,90.40
2019-04-28T07:01:29.733Z,90.60
2019-04-28T07:03:55.787Z,90.60
2019-04-28T07:06:21.872Z,90.60
2019-04-28T07:08:47.952Z,90.60
2019-04-28T07:11:13.997Z,90.70
2019-04-28T07:13:40.147Z,90.60
2019-04-28T07:16:06.204Z,90.60
2019-04-28T07:18:32.274Z,90.10
2019-04-28T07:21:00.323Z,89.90
2019-04-28T07:23:26.687Z,89.50
2019-04-28T07:25:52.815Z,89.20
2019-04-28T07:28:18.875Z,89.10
2019-04-28T07:30:44.932Z,89.30
2019-04-28T07:33:10.988Z,90.30
2019-04-28T07:35:37.038Z,90.50
2019-04-28T07:38:03.092Z,90.50
2019-04-28T07:40:29.155Z,90.30
2019-04-28T07:42:55.266Z,90.50
2019-04-28T07:45:21.319Z,90.00
2019-04-28T07:47:47.364Z,90.10
2019-04-28T07:50:13.563Z,90.00
2019-04-28T07:52:44.071Z,89.90
2019-04-28T07:55:10.324Z,89.80
2019-04-28T07:57:36.380Z,90.00
2019-04-28T08:00:04.022Z,89.60
2019-04-28T08:02:30.083Z,89.20
2019-04-28T08:04:56.144Z,89.10
2019-04-28T08:07:22.232Z,89.00
2019-04-28T08:09:48.280Z,89.00
2019-04-28T08:12:14.341Z,86.60
2019-04-28T08:14:40.391Z,86.00
2019-04-28T08:17:06.445Z,86.00
2019-04-28T08:19:32.612Z,86.00
2019-04-28T08:21:58.660Z,86.20
2019-04-28T08:24:24.707Z,86.10
2019-04-28T08:26:50.765Z,86.00
2019-04-28T08:29:16.899Z,86.50
2019-04-28T08:31:56.663Z,86.70
2019-04-28T08:34:22.835Z,86.30
2019-04-28T08:36:48.911Z,86.80
2019-04-28T08:39:15.049Z,87.60
2019-04-28T08:41:41.151Z,88.00
2019-04-28T08:44:07.252Z,87.90
2019-04-28T08:46:33.307Z,88.00
2019-04-28T08:48:59.383Z,87.90
2019-04-28T08:51:25.499Z,87.10
2019-04-28T08:53:51.563Z,86.20
2019-04-28T08:56:17.615Z,85.30
2019-04-28T08:58:43.690Z,85.30
2019-04-28T09:01:09.867Z,85.10
2019-04-28T09:03:35.923Z,85.10
2019-04-28T09:06:02.072Z,85.50
2019-04-28T09:08:28.119Z,85.20
2019-04-28T09:10:54.190Z,85.70
2019-04-28T09:13:20.342Z,86.30
2019-04-28T09:15:46.395Z,86.00
2019-04-28T09:18:12.475Z,85.40
2019-04-28T09:20:38.625Z,84.70
2019-04-28T09:23:04.703Z,84.30
2019-04-28T09:25:30.847Z,84.20
2019-04-28T09:27:56.946Z,84.40
2019-04-28T09:30:23.095Z,84.30
2019-04-28T09:32:49.173Z,83.90
2019-04-28T09:35:15.221Z,82.80
2019-04-28T09:37:41.485Z,82.40
2019-04-28T09:40:10.012Z,81.80
2019-04-28T09:42:38.107Z,80.90
2019-04-28T09:45:08.899Z,80.70
2019-04-28T09:47:34.973Z,78.20
2019-04-28T09:50:01.020Z,79.40
2019-04-28T09:52:27.066Z,80.00
2019-04-28T09:54:53.123Z,80.40
2019-04-28T09:57:19.182Z,80.50
2019-04-28T09:59:45.223Z,80.80
2019-04-28T10:02:11.335Z,81.10
2019-04-28T10:04:41.812Z,80.50
2019-04-28T10:07:05.343Z,80.30
2019-04-28T10:09:31.429Z,80.40
2019-04-28T10:11:57.479Z,80.20
2019-04-28T10:14:23.524Z,81.50
2019-04-28T10:16:49.612Z,80.60
2019-04-28T10:19:15.656Z,77.20
2019-04-28T10:21:41.704Z,76.30
2019-04-28T10:24:07.755Z,76.80
2019-04-28T10:26:33.815Z,74.10
2019-04-28T10:28:59.873Z,73.20
2019-04-28T10:31:25.951Z,71.90
2019-04-28T10:33:53.904Z,71.90
2019-04-28T10:36:19.960Z,72.50
2019-04-28T10:38:47.918Z,71.10
2019-04-28T10:41:24.935Z,68.20
2019-04-28T10:43:51.111Z,67.50
2019-04-28T10:46:17.208Z,67.70
2019-04-28T10:48:43.360Z,67.00
2019-04-28T10:51:09.410Z,67.80
2019-04-28T10:53:35.476Z,67.60
2019-04-28T10:56:01.531Z,68.20
2019-04-28T10:58:27.691Z,68.50
2019-04-28T11:00:53.839Z,67.20
2019-04-28T11:03:19.888Z,68.00
2019-04-28T11:05:46.158Z,68.20
2019-04-28T11:08:31.056Z,67.50
2019-04-28T11:10:58.357Z,68.40
2019-04-28T11:13:24.482Z,67.30
2019-04-28T11:15:50.543Z,68.30
2019-04-28T11:18:17.107Z,66.50
2019-04-28T11:20:43.391Z,66.60
2019-04-28T11:23:09.457Z,65.90
2019-04-28T11:25:35.600Z,65.60
2019-04-28T11:28:01.863Z,65.30
2019-04-28T11:30:29.163Z,64.80
2019-04-28T11:32:57.720Z,64.10
2019-04-28T11:35:25.780Z,65.20
2019-04-28T11:37:51.931Z,63.00
2019-04-28T11:40:17.991Z,64.40
2019-04-28T11:42:44.056Z,64.20
2019-04-28T11:45:10.511Z,62.70
2019-04-28T11:47:36.601Z,62.70
2019-04-28T11:50:03.396Z,60.30
2019-04-28T11:52:29.446Z,61.40
2019-04-28T11:54:55.499Z,60.90
2019-04-28T11:57:21.552Z,61.40
2019-04-28T11:59:47.684Z,62.40
2019-04-28T12:02:13.828Z,62.20
2019-04-28T12:04:39.899Z,61.20
2019-04-28T12:07:05.947Z,61.90
2019-04-28T12:09:33.899Z,60.50
2019-04-28T12:12:01.904Z,58.50
2019-04-28T12:14:32.666Z,58.20
2019-04-28T12:17:00.639Z,58.50
2019-04-28T12:19:28.595Z,59.00
2019-04-28T12:21:54.962Z,57.60
2019-04-28T12:24:21.013Z,55.80
2019-04-28T12:26:47.075Z,57.60
2019-04-28T12:29:13.123Z,58.00
2019-04-28T12:31:39.208Z,57.50
2019-04-28T12:34:05.263Z,58.70
2019-04-28T12:36:31.320Z,58.70
2019-04-28T12:38:57.380Z,57.20
2019-04-28T12:41:23.436Z,55.80
2019-04-28T12:43:49.496Z,56.20
2019-04-28T12:46:15.564Z,55.10
2019-04-28T12:48:41.619Z,55.00
2019-04-28T12:51:07.975Z,54.60
2019-04-28T12:53:34.047Z,52.70
2019-04-28T12:56:00.100Z,49.40
2019-04-28T12:58:27.072Z,51.60
2019-04-28T13:00:55.131Z,51.30
2019-04-28T13:03:23.088Z,51.40
2019-04-28T13:06:01.530Z,51.90
2019-04-28T13:08:19.034Z,52.60
2019-04-28T13:10:45.084Z,50.90
2019-04-28T13:13:11.137Z,49.60
2019-04-28T13:15:37.220Z,48.30
2019-04-28T13:18:03.686Z,49.30
2019-04-28T13:20:29.801Z,50.20
2019-04-28T13:22:55.905Z,49.20
2019-04-28T13:25:21.954Z,50.90
2019-04-28T13:27:48.065Z,51.10
2019-04-28T13:30:14.596Z,51.10
2019-04-28T13:32:40.667Z,51.90
2019-04-28T13:35:07.041Z,52.10
2019-04-28T13:37:33.175Z,51.20
2019-04-28T13:40:01.245Z,49.90
2019-04-28T13:42:27.411Z,50.80
2019-04-28T13:44:55.447Z,51.20
2019-04-28T13:47:21.507Z,51.30
2019-04-28T13:49:55.426Z,51.40
2019-04-28T13:52:21.513Z,51.30
2019-04-28T13:54:49.472Z,48.70
2019-04-28T13:57:15.768Z,50.70
2019-04-28T13:59:41.880Z,51.40
2019-04-28T14:02:09.836Z,50.10
2019-04-28T14:04:37.826Z,49.00
2019-04-28T14:07:03.976Z,49.00
2019-04-28T14:09:30.037Z,51.40
2019-04-28T14:11:56.107Z,50.70
2019-04-28T14:14:22.149Z,50.90
2019-04-28T14:16:48.221Z,49.00
2019-04-28T14:19:14.365Z,49.30
2019-04-28T14:21:40.519Z,48.30
2019-04-28T14:24:06.584Z,48.20
2019-04-28T14:26:32.710Z,49.50
2019-04-28T14:28:58.871Z,49.40
2019-04-28T14:31:24.928Z,49.70
2019-04-28T14:33:50.988Z,50.30
2019-04-28T14:36:17.111Z,50.80
2019-04-28T14:38:43.321Z,50.40
2019-04-28T14:41:09.427Z,52.00
2019-04-28T14:43:35.479Z,53.10
2019-04-28T14:46:01.583Z,53.80
2019-04-28T14:48:27.691Z,54.00
2019-04-28T14:50:53.780Z,53.20
2019-04-28T14:53:19.909Z,54.20
2019-04-28T14:55:46.118Z,52.90
2019-04-28T14:58:12.227Z,53.70
2019-04-28T15:00:52.017Z,53.70
2019-04-28T15:03:19.296Z,54.70
2019-04-28T15:05:47.247Z,53.90
2019-04-28T15:08:20.810Z,54.20
2019-04-28T15:10:51.452Z,53.90
2019-04-28T15:13:18.710Z,54.70
2019-04-28T15:15:44.833Z,55.00
2019-04-28T15:18:11.123Z,54.10
2019-04-28T15:20:37.168Z,55.20
2019-04-28T15:23:03.233Z,53.50
2019-04-28T15:25:29.287Z,53.70
2019-04-28T15:27:55.353Z,53.40
2019-04-28T15:30:21.500Z,54.40
2019-04-28T15:32:47.569Z,54.60
2019-04-28T15:35:13.715Z,55.00
2019-04-28T15:37:39.771Z,54.80
2019-04-28T15:40:06.530Z,55.40
2019-04-28T15:42:32.588Z,54.80
2019-04-28T15:44:58.638Z,55.30
2019-04-28T15:47:24.711Z,54.00
2019-04-28T15:49:50.760Z,54.20
2019-04-28T15:52:17.028Z,54.20
2019-04-28T15:54:43.115Z,53.70
2019-04-28T15:57:09.208Z,53.20
2019-04-28T15:59:35.263Z,53.90
2019-04-28T16:02:01.319Z,53.70
2019-04-28T16:04:27.379Z,53.20
2019-04-28T16:06:53.434Z,52.50
2019-04-28T16:09:19.612Z,53.60
2019-04-28T16:11:45.678Z,53.00
2019-04-28T16:14:11.923Z,53.00
2019-04-28T16:16:37.984Z,53.60
2019-04-28T16:19:04.334Z,54.40
2019-04-28T16:21:30.479Z,54.70
2019-04-28T16:23:56.575Z,54.90
2019-04-28T16:26:23.131Z,55.80
2019-04-28T16:28:49.331Z,56.00
2019-04-28T16:31:15.408Z,56.40
2019-04-28T16:33:41.471Z,57.20
2019-04-28T16:36:07.543Z,57.50
2019-04-28T16:38:33.663Z,57.50
2019-04-28T16:41:02.249Z,57.60
2019-04-28T16:43:30.443Z,57.90
2019-04-28T16:45:56.587Z,58.20
2019-04-28T16:48:22.743Z,58.40
2019-04-28T16:50:48.787Z,58.00
2019-04-28T16:53:14.848Z,58.90
2019-04-28T16:55:42.803Z,57.50
2019-04-28T16:58:22.785Z,57.70
2019-04-28T17:00:56.353Z,59.20
2019-04-28T17:03:22.625Z,59.40
2019-04-28T17:05:48.685Z,59.00
2019-04-28T17:08:14.743Z,58.80
2019-04-28T17:10:40.804Z,59.50
2019-04-28T17:13:06.919Z,59.70
2019-04-28T17:15:33.071Z,59.60
2019-04-28T17:17:59.203Z,59.70
2019-04-28T17:20:25.254Z,59.70
2019-04-28T17:22:51.343Z,60.20
2019-04-28T17:25:17.608Z,60.50
2019-04-28T17:27:43.675Z,60.00
2019-04-28T17:30:11.533Z,59.80
2019-04-28T17:32:37.593Z,60.50
2019-04-28T17:35:04.863Z,60.50
2019-04-28T17:37:30.910Z,61.00
2019-04-28T17:39:56.963Z,61.40
2019-04-28T17:42:23.023Z,60.30
2019-04-28T17:44:49.110Z,61.60
2019-04-28T17:47:17.134Z,62.10
2019-04-28T17:49:43.295Z,62.60
2019-04-28T17:52:09.438Z,62.90
2019-04-28T17:54:35.491Z,62.90
2019-04-28T17:57:01.543Z,62.90
2019-04-28T17:59:27.609Z,63.10
2019-04-28T18:01:55.644Z,63.70
2019-04-28T18:04:40.117Z,63.50
2019-04-28T18:07:08.196Z,63.50
2019-04-28T18:09:34.309Z,63.50
2019-04-28T18:12:00.371Z,63.90
2019-04-28T18:14:26.421Z,64.40
2019-04-28T18:17:06.813Z,64.50
2019-04-28T18:19:32.926Z,64.90
2019-04-28T18:21:58.979Z,65.30
2019-04-28T18:24:25.081Z,65.80
2019-04-28T18:26:51.234Z,66.20
2019-04-28T18:29:17.292Z,66.70
2019-04-28T18:31:51.284Z,66.90
2019-04-28T18:34:22.126Z,67.70
2019-04-28T18:36:52.784Z,67.70
2019-04-28T18:39:37.592Z,68.40
2019-04-28T18:42:14.815Z,68.70
2019-04-28T18:44:41.055Z,69.40
2019-04-28T18:47:07.135Z,69.50
2019-04-28T18:49:33.263Z,70.80
2019-04-28T18:51:59.355Z,70.20
2019-04-28T18:54:25.408Z,71.80
2019-04-28T18:56:51.468Z,72.00
2019-04-28T18:59:17.640Z,72.90
2019-04-28T19:01:45.712Z,73.80
2019-04-28T19:04:11.905Z,74.30
2019-04-28T19:06:38.051Z,78.90
2019-04-28T19:09:17.116Z,77.90
2019-04-28T19:12:01.720Z,76.40
2019-04-28T19:14:32.635Z,75.70
2019-04-28T19:17:06.649Z,75.50
2019-04-28T19:19:34.715Z,76.90
2019-04-28T19:22:00.902Z,77.80
2019-04-28T19:24:27.135Z,77.50
2019-04-28T19:26:53.183Z,77.70
2019-04-28T19:29:19.548Z,77.80
2019-04-28T19:31:45.606Z,77.90
2019-04-28T19:34:11.684Z,78.40
2019-04-28T19:36:37.802Z,79.00
2019-04-28T19:39:04.735Z,79.70
2019-04-28T19:41:30.794Z,80.10
2019-04-28T19:43:56.842Z,80.60
2019-04-28T19:46:22.903Z,81.20
2019-04-28T19:48:48.955Z,81.80
2019-04-28T19:51:16.909Z,82.10
2019-04-28T19:53:42.963Z,82.90
2019-04-28T19:56:10.921Z,83.20
2019-04-28T19:58:41.659Z,83.80
2019-04-28T20:01:15.495Z,84.30
2019-04-28T20:03:41.579Z,84.40
2019-04-28T20:06:07.628Z,84.40
2019-04-28T20:08:33.699Z,84.70
2019-04-28T20:10:59.764Z,85.00
2019-04-28T20:13:25.918Z,85.50
2019-04-28T20:15:51.996Z,85.80
2019-04-28T20:18:18.048Z,86.10
2019-04-28T20:20:44.151Z,86.20
2019-04-28T20:23:10.203Z,85.70
2019-04-28T20:25:36.272Z,86.40
2019-04-28T20:28:02.320Z,86.40
2019-04-28T20:30:28.392Z,86.50
2019-04-28T20:33:06.560Z,86.60
2019-04-28T20:35:24.323Z,86.80
2019-04-28T20:37:52.284Z,87.00
2019-04-28T20:40:20.239Z,87.50
2019-04-28T20:42:48.216Z,87.80
2019-04-28T20:45:16.071Z,88.10
2019-04-28T20:47:42.145Z,88.30
2019-04-28T20:50:08.727Z,88.90
2019-04-28T20:52:34.848Z,89.10
2019-04-28T20:55:00.931Z,89.30
2019-04-28T20:57:26.985Z,89.60
2019-04-28T20:59:53.032Z,89.70
2019-04-28T21:02:19.092Z,89.80
2019-04-28T21:04:45.247Z,90.00
2019-04-28T21:07:11.394Z,90.10
2019-04-28T21:09:37.503Z,90.20
2019-04-28T21:12:03.560Z,90.30
2019-04-28T21:14:29.618Z,90.50
2019-04-28T21:16:55.952Z,90.60
2019-04-28T21:19:22.023Z,90.70
2019-04-28T21:21:48.075Z,90.80
2019-04-28T21:24:16.727Z,90.90
2019-04-28T21:26:42.099Z,91.10
2019-04-28T21:29:08.139Z,91.20
2019-04-28T21:31:34.209Z,91.30
2019-04-28T21:34:00.268Z,91.40
2019-04-28T21:36:26.391Z,91.50
2019-04-28T21:38:52.456Z,91.50
2019-04-28T21:41:18.511Z,91.50
2019-04-28T21:43:49.068Z,91.60
2019-04-28T21:46:23.330Z,91.70
2019-04-28T21:48:51.351Z,91.70
2019-04-28T21:51:17.401Z,91.70
2019-04-28T21:53:43.467Z,91.70
2019-04-28T21:56:09.527Z,91.70
2019-04-28T21:58:35.588Z,91.80
2019-04-28T22:01:02.705Z,91.80
2019-04-28T22:03:28.908Z,91.90
2019-04-28T22:05:54.988Z,92.00
2019-04-28T22:08:21.042Z,92.10
2019-04-28T22:10:47.093Z,92.20
2019-04-28T22:13:13.157Z,92.30
2019-04-28T22:15:39.246Z,92.30
2019-04-28T22:18:05.765Z,92.40
2019-04-28T22:20:31.852Z,92.50
2019-04-28T22:22:59.803Z,92.40
2019-04-28T22:25:25.851Z,92.50
2019-04-28T22:27:51.915Z,92.60
2019-04-28T22:30:17.980Z,92.70
2019-04-28T22:32:44.055Z,92.80
2019-04-28T22:35:15.135Z,92.90
2019-04-28T22:37:41.240Z,93.00
2019-04-28T22:40:07.871Z,93.10
2019-04-28T22:42:33.923Z,93.20
2019-04-28T22:44:59.971Z,93.20
2019-04-28T22:47:26.135Z,93.40
2019-04-28T22:49:52.288Z,93.50
2019-04-28T22:52:18.336Z,93.60
2019-04-28T22:54:49.121Z,93.70
2019-04-28T22:57:17.067Z,93.90
2019-04-28T22:59:45.035Z,94.00
2019-04-28T23:02:12.996Z,94.00
2019-04-28T23:04:43.531Z,94.30
2019-04-28T23:07:09.615Z,94.30
2019-04-28T23:09:35.664Z,94.30
2019-04-28T23:12:01.924Z,94.30
2019-04-28T23:14:27.978Z,94.30
2019-04-28T23:16:54.048Z,94.30
2019-04-28T23:19:22.015Z,94.40
2019-04-28T23:21:56.019Z,94.40
2019-04-28T23:24:22.072Z,94.40
2019-04-28T23:26:48.132Z,94.40
2019-04-28T23:29:14.279Z,94.50
2019-04-28T23:31:40.332Z,94.50
2019-04-28T23:34:06.386Z,94.70
2019-04-28T23:36:32.480Z,94.80
2019-04-28T23:38:58.524Z,94.80
2019-04-28T23:41:32.227Z,94.70
2019-04-28T23:43:58.287Z,94.70
2019-04-28T23:46:26.239Z,94.70
2019-04-28T23:48:52.292Z,94.70
2019-04-28T23:51:26.037Z,94.70
2019-04-28T23:53:56.972Z,94.70
2019-04-28T23:56:23.028Z,94.80
2019-04-28T23:58:49.083Z,95.00
